sensor_id;sensor_type;location;lat;lon;timestamp;P1;durP1;ratioP1;P2;durP2;ratioP2
70929;SDS011;58588;48.102;19.682;2023-04-15T00:00:05;9.95;;;3.95;;
70929;SDS011;58588;48.102;19.682;2023-04-15T00:03:09;12.18;;;4.78;;
70929;SDS011;58588;48.102;19.682;2023-04-15T00:06:11;12.07;;;4.47;;
70929;SDS011;58588;48.102;19.682;2023-04-15T00:09:13;13.82;;;5.80;;
70929;SDS011;58588;48.102;19.682;2023-04-15T00:12:17;12.40;;;4.30;;
70929;SDS011;58588;48.102;19.682;2023-04-15T00:15:19;13.55;;;5.28;;
70929;SDS011;58588;48.102;19.682;2023-04-15T00:18:21;10.45;;;4.45;;
70929;SDS011;58588;48.102;19.682;2023-04-15T00:21:24;12.10;;;4.00;;
70929;SDS011;58588;48.102;19.682;2023-04-15T00:24:28;10.43;;;4.13;;
70929;SDS011;58588;48.102;19.682;2023-04-15T00:27:32;9.67;;;3.73;;
70929;SDS011;58588;48.102;19.682;2023-04-15T00:30:34;9.32;;;3.90;;
70929;SDS011;58588;48.102;19.682;2023-04-15T00:33:36;10.02;;;3.80;;
70929;SDS011;58588;48.102;19.682;2023-04-15T00:36:39;9.27;;;3.35;;
70929;SDS011;58588;48.102;19.682;2023-04-15T00:39:41;11.02;;;3.63;;
70929;SDS011;58588;48.102;19.682;2023-04-15T00:42:44;7.50;;;2.97;;
70929;SDS011;58588;48.102;19.682;2023-04-15T00:45:46;7.50;;;2.85;;
70929;SDS011;58588;48.102;19.682;2023-04-15T00:48:48;8.57;;;3.40;;
70929;SDS011;58588;48.102;19.682;2023-04-15T00:51:51;10.82;;;5.00;;
70929;SDS011;58588;48.102;19.682;2023-04-15T00:54:54;9.20;;;3.45;;
70929;SDS011;58588;48.102;19.682;2023-04-15T00:57:57;8.47;;;3.13;;
70929;SDS011;58588;48.102;19.682;2023-04-15T01:01:00;9.00;;;3.60;;
70929;SDS011;58588;48.102;19.682;2023-04-15T01:04:02;10.50;;;4.00;;
70929;SDS011;58588;48.102;19.682;2023-04-15T01:07:04;8.73;;;3.60;;
70929;SDS011;58588;48.102;19.682;2023-04-15T01:10:07;8.70;;;3.40;;
70929;SDS011;58588;48.102;19.682;2023-04-15T01:13:11;7.87;;;2.80;;
70929;SDS011;58588;48.102;19.682;2023-04-15T01:16:13;8.35;;;3.20;;
70929;SDS011;58588;48.102;19.682;2023-04-15T01:19:16;8.23;;;3.03;;
70929;SDS011;58588;48.102;19.682;2023-04-15T01:22:18;7.63;;;2.92;;
70929;SDS011;58588;48.102;19.682;2023-04-15T01:25:27;8.95;;;3.22;;
70929;SDS011;58588;48.102;19.682;2023-04-15T01:28:32;8.23;;;2.80;;
70929;SDS011;58588;48.102;19.682;2023-04-15T01:31:34;7.75;;;2.85;;
70929;SDS011;58588;48.102;19.682;2023-04-15T01:34:36;9.25;;;2.97;;
70929;SDS011;58588;48.102;19.682;2023-04-15T01:37:38;6.85;;;2.72;;
70929;SDS011;58588;48.102;19.682;2023-04-15T01:40:42;7.35;;;2.80;;
70929;SDS011;58588;48.102;19.682;2023-04-15T01:43:45;17.20;;;7.43;;
70929;SDS011;58588;48.102;19.682;2023-04-15T01:46:47;9.52;;;4.00;;
70929;SDS011;58588;48.102;19.682;2023-04-15T01:49:50;9.73;;;4.55;;
70929;SDS011;58588;48.102;19.682;2023-04-15T01:52:52;10.07;;;4.50;;
70929;SDS011;58588;48.102;19.682;2023-04-15T01:55:55;8.57;;;3.90;;
70929;SDS011;58588;48.102;19.682;2023-04-15T01:58:57;7.77;;;3.20;;
70929;SDS011;58588;48.102;19.682;2023-04-15T02:01:59;7.63;;;3.40;;
70929;SDS011;58588;48.102;19.682;2023-04-15T02:05:02;8.95;;;3.55;;
70929;SDS011;58588;48.102;19.682;2023-04-15T02:08:04;8.75;;;3.40;;
70929;SDS011;58588;48.102;19.682;2023-04-15T02:11:08;8.07;;;3.20;;
70929;SDS011;58588;48.102;19.682;2023-04-15T02:14:10;7.87;;;3.10;;
70929;SDS011;58588;48.102;19.682;2023-04-15T02:17:12;8.13;;;3.40;;
70929;SDS011;58588;48.102;19.682;2023-04-15T02:20:14;8.23;;;3.08;;
70929;SDS011;58588;48.102;19.682;2023-04-15T02:23:17;9.35;;;4.05;;
70929;SDS011;58588;48.102;19.682;2023-04-15T02:26:20;9.30;;;3.72;;
70929;SDS011;58588;48.102;19.682;2023-04-15T02:29:24;8.03;;;3.30;;
70929;SDS011;58588;48.102;19.682;2023-04-15T02:32:26;9.57;;;3.50;;
70929;SDS011;58588;48.102;19.682;2023-04-15T02:35:28;8.65;;;3.80;;
70929;SDS011;58588;48.102;19.682;2023-04-15T02:38:31;10.32;;;3.75;;
70929;SDS011;58588;48.102;19.682;2023-04-15T02:41:34;8.85;;;3.30;;
70929;SDS011;58588;48.102;19.682;2023-04-15T02:44:36;7.57;;;2.90;;
70929;SDS011;58588;48.102;19.682;2023-04-15T02:47:38;9.88;;;3.85;;
70929;SDS011;58588;48.102;19.682;2023-04-15T02:50:41;9.82;;;4.18;;
70929;SDS011;58588;48.102;19.682;2023-04-15T02:53:43;10.65;;;4.40;;
70929;SDS011;58588;48.102;19.682;2023-04-15T02:56:46;9.95;;;4.50;;
70929;SDS011;58588;48.102;19.682;2023-04-15T02:59:49;10.87;;;4.40;;
70929;SDS011;58588;48.102;19.682;2023-04-15T03:02:51;8.02;;;3.15;;
70929;SDS011;58588;48.102;19.682;2023-04-15T03:05:58;8.95;;;3.80;;
70929;SDS011;58588;48.102;19.682;2023-04-15T03:09:00;9.52;;;3.92;;
70929;SDS011;58588;48.102;19.682;2023-04-15T03:12:04;9.02;;;3.60;;
70929;SDS011;58588;48.102;19.682;2023-04-15T03:15:06;7.87;;;3.30;;
70929;SDS011;58588;48.102;19.682;2023-04-15T03:18:10;8.27;;;3.60;;
70929;SDS011;58588;48.102;19.682;2023-04-15T03:21:12;8.38;;;3.17;;
70929;SDS011;58588;48.102;19.682;2023-04-15T03:24:14;8.35;;;3.40;;
70929;SDS011;58588;48.102;19.682;2023-04-15T03:27:17;7.82;;;3.15;;
70929;SDS011;58588;48.102;19.682;2023-04-15T03:30:19;8.37;;;2.93;;
70929;SDS011;58588;48.102;19.682;2023-04-15T03:33:21;7.45;;;2.83;;
70929;SDS011;58588;48.102;19.682;2023-04-15T03:36:23;8.63;;;3.20;;
70929;SDS011;58588;48.102;19.682;2023-04-15T03:39:26;10.23;;;3.47;;
70929;SDS011;58588;48.102;19.682;2023-04-15T03:42:29;8.85;;;3.47;;
70929;SDS011;58588;48.102;19.682;2023-04-15T03:45:31;9.63;;;3.63;;
70929;SDS011;58588;48.102;19.682;2023-04-15T03:48:34;8.23;;;3.20;;
70929;SDS011;58588;48.102;19.682;2023-04-15T03:51:36;8.90;;;3.30;;
70929;SDS011;58588;48.102;19.682;2023-04-15T03:54:38;8.60;;;3.33;;
70929;SDS011;58588;48.102;19.682;2023-04-15T03:57:41;8.93;;;3.75;;
70929;SDS011;58588;48.102;19.682;2023-04-15T04:00:43;7.70;;;3.07;;
70929;SDS011;58588;48.102;19.682;2023-04-15T04:03:45;7.63;;;3.40;;
70929;SDS011;58588;48.102;19.682;2023-04-15T04:06:47;7.68;;;2.83;;
70929;SDS011;58588;48.102;19.682;2023-04-15T04:09:49;8.90;;;3.47;;
70929;SDS011;58588;48.102;19.682;2023-04-15T04:12:53;9.05;;;3.38;;
70929;SDS011;58588;48.102;19.682;2023-04-15T04:15:55;14.27;;;5.33;;
70929;SDS011;58588;48.102;19.682;2023-04-15T04:18:57;20.42;;;7.53;;
70929;SDS011;58588;48.102;19.682;2023-04-15T04:21:59;27.35;;;9.48;;
70929;SDS011;58588;48.102;19.682;2023-04-15T04:25:01;12.68;;;5.68;;
70929;SDS011;58588;48.102;19.682;2023-04-15T04:28:04;10.68;;;4.30;;
70929;SDS011;58588;48.102;19.682;2023-04-15T04:31:06;14.53;;;5.27;;
70929;SDS011;58588;48.102;19.682;2023-04-15T04:34:08;75.55;;;27.55;;
70929;SDS011;58588;48.102;19.682;2023-04-15T04:37:10;143.65;;;59.92;;
70929;SDS011;58588;48.102;19.682;2023-04-15T04:40:12;52.35;;;22.77;;
70929;SDS011;58588;48.102;19.682;2023-04-15T04:43:16;48.90;;;22.70;;
70929;SDS011;58588;48.102;19.682;2023-04-15T04:46:18;37.50;;;18.13;;
70929;SDS011;58588;48.102;19.682;2023-04-15T04:49:20;19.88;;;9.00;;
70929;SDS011;58588;48.102;19.682;2023-04-15T04:52:22;16.77;;;7.05;;
70929;SDS011;58588;48.102;19.682;2023-04-15T04:55:24;20.92;;;9.35;;
70929;SDS011;58588;48.102;19.682;2023-04-15T04:58:28;24.88;;;12.00;;
70929;SDS011;58588;48.102;19.682;2023-04-15T05:01:30;24.33;;;10.40;;
70929;SDS011;58588;48.102;19.682;2023-04-15T05:04:32;25.45;;;10.30;;
70929;SDS011;58588;48.102;19.682;2023-04-15T05:07:34;22.38;;;9.88;;
70929;SDS011;58588;48.102;19.682;2023-04-15T05:10:36;23.35;;;9.77;;
70929;SDS011;58588;48.102;19.682;2023-04-15T05:13:40;25.75;;;11.25;;
70929;SDS011;58588;48.102;19.682;2023-04-15T05:16:42;25.40;;;11.80;;
70929;SDS011;58588;48.102;19.682;2023-04-15T05:19:44;24.25;;;12.20;;
70929;SDS011;58588;48.102;19.682;2023-04-15T05:22:46;21.40;;;10.52;;
70929;SDS011;58588;48.102;19.682;2023-04-15T05:25:48;18.63;;;8.95;;
70929;SDS011;58588;48.102;19.682;2023-04-15T05:28:52;17.45;;;8.10;;
70929;SDS011;58588;48.102;19.682;2023-04-15T05:31:54;16.93;;;7.63;;
70929;SDS011;58588;48.102;19.682;2023-04-15T05:34:56;15.75;;;7.20;;
70929;SDS011;58588;48.102;19.682;2023-04-15T05:37:58;15.43;;;7.40;;
70929;SDS011;58588;48.102;19.682;2023-04-15T05:41:00;16.85;;;7.13;;
70929;SDS011;58588;48.102;19.682;2023-04-15T05:44:05;14.35;;;6.50;;
70929;SDS011;58588;48.102;19.682;2023-04-15T05:47:07;14.53;;;6.57;;
70929;SDS011;58588;48.102;19.682;2023-04-15T05:50:10;15.07;;;6.95;;
70929;SDS011;58588;48.102;19.682;2023-04-15T05:53:12;17.65;;;7.00;;
70929;SDS011;58588;48.102;19.682;2023-04-15T05:56:14;15.05;;;7.13;;
70929;SDS011;58588;48.102;19.682;2023-04-15T05:59:17;16.92;;;7.85;;
70929;SDS011;58588;48.102;19.682;2023-04-15T06:02:19;18.70;;;8.00;;
70929;SDS011;58588;48.102;19.682;2023-04-15T06:05:21;15.05;;;7.00;;
70929;SDS011;58588;48.102;19.682;2023-04-15T06:08:24;14.30;;;6.53;;
70929;SDS011;58588;48.102;19.682;2023-04-15T06:11:27;14.82;;;6.80;;
70929;SDS011;58588;48.102;19.682;2023-04-15T06:14:30;13.63;;;6.40;;
70929;SDS011;58588;48.102;19.682;2023-04-15T06:17:32;11.90;;;6.03;;
70929;SDS011;58588;48.102;19.682;2023-04-15T06:20:34;12.02;;;5.63;;
70929;SDS011;58588;48.102;19.682;2023-04-15T06:23:37;13.00;;;6.22;;
70929;SDS011;58588;48.102;19.682;2023-04-15T06:26:40;13.93;;;6.40;;
70929;SDS011;58588;48.102;19.682;2023-04-15T06:29:43;12.30;;;5.30;;
70929;SDS011;58588;48.102;19.682;2023-04-15T06:32:46;13.17;;;5.67;;
70929;SDS011;58588;48.102;19.682;2023-04-15T06:35:48;14.25;;;5.05;;
70929;SDS011;58588;48.102;19.682;2023-04-15T06:38:50;9.98;;;4.65;;
70929;SDS011;58588;48.102;19.682;2023-04-15T06:41:52;9.85;;;4.53;;
70929;SDS011;58588;48.102;19.682;2023-04-15T06:44:55;11.40;;;4.85;;
70929;SDS011;58588;48.102;19.682;2023-04-15T06:47:57;11.03;;;5.20;;
70929;SDS011;58588;48.102;19.682;2023-04-15T06:50:59;10.48;;;4.30;;
70929;SDS011;58588;48.102;19.682;2023-04-15T06:54:03;10.15;;;4.63;;
70929;SDS011;58588;48.102;19.682;2023-04-15T06:57:05;9.00;;;4.57;;
70929;SDS011;58588;48.102;19.682;2023-04-15T07:00:10;11.38;;;5.60;;
70929;SDS011;58588;48.102;19.682;2023-04-15T07:03:13;12.93;;;6.10;;
70929;SDS011;58588;48.102;19.682;2023-04-15T07:06:15;9.73;;;4.90;;
70929;SDS011;58588;48.102;19.682;2023-04-15T07:09:17;11.13;;;5.03;;
70929;SDS011;58588;48.102;19.682;2023-04-15T07:12:19;10.75;;;4.80;;
70929;SDS011;58588;48.102;19.682;2023-04-15T07:15:23;11.15;;;4.60;;
70929;SDS011;58588;48.102;19.682;2023-04-15T07:18:25;8.97;;;4.30;;
70929;SDS011;58588;48.102;19.682;2023-04-15T07:21:27;8.45;;;3.80;;
70929;SDS011;58588;48.102;19.682;2023-04-15T07:24:29;8.00;;;3.42;;
70929;SDS011;58588;48.102;19.682;2023-04-15T07:27:31;6.35;;;2.72;;
70929;SDS011;58588;48.102;19.682;2023-04-15T07:30:35;7.15;;;3.38;;
70929;SDS011;58588;48.102;19.682;2023-04-15T07:33:37;5.93;;;2.27;;
70929;SDS011;58588;48.102;19.682;2023-04-15T07:36:39;5.40;;;1.95;;
70929;SDS011;58588;48.102;19.682;2023-04-15T07:39:41;6.28;;;2.20;;
70929;SDS011;58588;48.102;19.682;2023-04-15T07:42:44;5.43;;;2.17;;
70929;SDS011;58588;48.102;19.682;2023-04-15T07:45:49;6.40;;;2.00;;
70929;SDS011;58588;48.102;19.682;2023-04-15T07:48:52;7.23;;;2.23;;
70929;SDS011;58588;48.102;19.682;2023-04-15T07:51:54;6.05;;;2.35;;
70929;SDS011;58588;48.102;19.682;2023-04-15T07:54:57;6.65;;;2.00;;
70929;SDS011;58588;48.102;19.682;2023-04-15T07:57:59;5.45;;;1.90;;
70929;SDS011;58588;48.102;19.682;2023-04-15T08:01:03;7.03;;;2.40;;
70929;SDS011;58588;48.102;19.682;2023-04-15T08:04:05;7.70;;;2.53;;
70929;SDS011;58588;48.102;19.682;2023-04-15T08:07:07;8.13;;;3.53;;
70929;SDS011;58588;48.102;19.682;2023-04-15T08:10:09;15.23;;;9.68;;
70929;SDS011;58588;48.102;19.682;2023-04-15T08:13:11;11.75;;;6.70;;
70929;SDS011;58588;48.102;19.682;2023-04-15T08:16:17;7.03;;;3.00;;
70929;SDS011;58588;48.102;19.682;2023-04-15T08:19:20;7.60;;;3.33;;
70929;SDS011;58588;48.102;19.682;2023-04-15T08:22:23;6.68;;;2.40;;
70929;SDS011;58588;48.102;19.682;2023-04-15T08:25:25;8.25;;;3.63;;
70929;SDS011;58588;48.102;19.682;2023-04-15T08:28:27;7.28;;;2.88;;
70929;SDS011;58588;48.102;19.682;2023-04-15T08:31:31;9.38;;;4.47;;
70929;SDS011;58588;48.102;19.682;2023-04-15T08:34:33;7.80;;;2.50;;
70929;SDS011;58588;48.102;19.682;2023-04-15T08:37:35;5.63;;;2.03;;
70929;SDS011;58588;48.102;19.682;2023-04-15T08:40:39;7.05;;;2.83;;
70929;SDS011;58588;48.102;19.682;2023-04-15T08:43:44;9.90;;;3.40;;
70929;SDS011;58588;48.102;19.682;2023-04-15T08:46:53;8.50;;;2.60;;
70929;SDS011;58588;48.102;19.682;2023-04-15T08:49:57;6.90;;;2.80;;
70929;SDS011;58588;48.102;19.682;2023-04-15T08:52:59;6.72;;;2.40;;
70929;SDS011;58588;48.102;19.682;2023-04-15T08:56:03;4.50;;;1.58;;
70929;SDS011;58588;48.102;19.682;2023-04-15T08:59:09;3.33;;;0.70;;
70929;SDS011;58588;48.102;19.682;2023-04-15T09:02:13;3.90;;;0.60;;
70929;SDS011;58588;48.102;19.682;2023-04-15T09:05:15;3.43;;;0.63;;
70929;SDS011;58588;48.102;19.682;2023-04-15T09:08:17;2.75;;;0.50;;
70929;SDS011;58588;48.102;19.682;2023-04-15T09:11:20;3.50;;;0.60;;
70929;SDS011;58588;48.102;19.682;2023-04-15T09:14:22;3.47;;;0.68;;
70929;SDS011;58588;48.102;19.682;2023-04-15T09:17:25;3.50;;;0.80;;
70929;SDS011;58588;48.102;19.682;2023-04-15T09:20:28;3.33;;;0.77;;
70929;SDS011;58588;48.102;19.682;2023-04-15T09:23:30;3.47;;;0.70;;
70929;SDS011;58588;48.102;19.682;2023-04-15T09:26:33;3.22;;;0.70;;
70929;SDS011;58588;48.102;19.682;2023-04-15T09:29:36;3.85;;;0.68;;
70929;SDS011;58588;48.102;19.682;2023-04-15T09:32:48;3.47;;;0.75;;
70929;SDS011;58588;48.102;19.682;2023-04-15T09:35:58;3.17;;;0.80;;
70929;SDS011;58588;48.102;19.682;2023-04-15T09:39:01;5.72;;;1.20;;
70929;SDS011;58588;48.102;19.682;2023-04-15T09:42:04;5.50;;;1.42;;
70929;SDS011;58588;48.102;19.682;2023-04-15T09:45:07;5.80;;;1.52;;
70929;SDS011;58588;48.102;19.682;2023-04-15T09:48:17;6.43;;;1.30;;
70929;SDS011;58588;48.102;19.682;2023-04-15T09:51:31;5.33;;;1.20;;
70929;SDS011;58588;48.102;19.682;2023-04-15T09:54:35;4.00;;;1.00;;
70929;SDS011;58588;48.102;19.682;2023-04-15T09:57:38;4.97;;;1.40;;
70929;SDS011;58588;48.102;19.682;2023-04-15T10:00:42;4.40;;;1.30;;
70929;SDS011;58588;48.102;19.682;2023-04-15T10:03:46;4.97;;;1.33;;
70929;SDS011;58588;48.102;19.682;2023-04-15T10:06:48;5.10;;;1.60;;
70929;SDS011;58588;48.102;19.682;2023-04-15T10:09:50;4.63;;;1.20;;
70929;SDS011;58588;48.102;19.682;2023-04-15T10:12:53;3.42;;;0.50;;
70929;SDS011;58588;48.102;19.682;2023-04-15T10:15:57;2.53;;;0.45;;
70929;SDS011;58588;48.102;19.682;2023-04-15T10:19:01;2.55;;;0.55;;
70929;SDS011;58588;48.102;19.682;2023-04-15T10:22:04;4.67;;;0.90;;
70929;SDS011;58588;48.102;19.682;2023-04-15T10:25:07;5.13;;;1.33;;
70929;SDS011;58588;48.102;19.682;2023-04-15T10:28:11;3.47;;;0.80;;
70929;SDS011;58588;48.102;19.682;2023-04-15T10:31:13;5.22;;;1.55;;
70929;SDS011;58588;48.102;19.682;2023-04-15T10:34:19;4.95;;;1.40;;
70929;SDS011;58588;48.102;19.682;2023-04-15T10:37:24;2.53;;;0.43;;
70929;SDS011;58588;48.102;19.682;2023-04-15T10:40:35;1.00;;;0.20;;
70929;SDS011;58588;48.102;19.682;2023-04-15T10:43:39;2.85;;;0.47;;
70929;SDS011;58588;48.102;19.682;2023-04-15T10:46:45;3.42;;;0.77;;
70929;SDS011;58588;48.102;19.682;2023-04-15T10:49:50;2.05;;;0.30;;
70929;SDS011;58588;48.102;19.682;2023-04-15T10:52:52;2.47;;;0.40;;
70929;SDS011;58588;48.102;19.682;2023-04-15T10:55:55;2.47;;;0.45;;
70929;SDS011;58588;48.102;19.682;2023-04-15T10:58:58;2.53;;;0.57;;
70929;SDS011;58588;48.102;19.682;2023-04-15T11:02:02;4.05;;;0.80;;
70929;SDS011;58588;48.102;19.682;2023-04-15T11:05:07;2.88;;;0.55;;
70929;SDS011;58588;48.102;19.682;2023-04-15T11:08:09;3.47;;;0.70;;
70929;SDS011;58588;48.102;19.682;2023-04-15T11:11:12;3.00;;;0.60;;
70929;SDS011;58588;48.102;19.682;2023-04-15T11:14:15;7.40;;;1.90;;
70929;SDS011;58588;48.102;19.682;2023-04-15T11:17:25;2.92;;;0.60;;
70929;SDS011;58588;48.102;19.682;2023-04-15T11:20:30;3.60;;;0.70;;
70929;SDS011;58588;48.102;19.682;2023-04-15T11:23:34;5.83;;;1.73;;
70929;SDS011;58588;48.102;19.682;2023-04-15T11:26:37;5.05;;;1.40;;
70929;SDS011;58588;48.102;19.682;2023-04-15T11:29:39;4.18;;;0.80;;
70929;SDS011;58588;48.102;19.682;2023-04-15T11:32:41;3.95;;;0.60;;
70929;SDS011;58588;48.102;19.682;2023-04-15T11:35:45;4.30;;;0.68;;
70929;SDS011;58588;48.102;19.682;2023-04-15T11:38:47;3.80;;;0.80;;
70929;SDS011;58588;48.102;19.682;2023-04-15T11:41:49;9.65;;;0.95;;
70929;SDS011;58588;48.102;19.682;2023-04-15T11:44:54;4.40;;;1.60;;
70929;SDS011;58588;48.102;19.682;2023-04-15T11:48:09;5.20;;;1.73;;
70929;SDS011;58588;48.102;19.682;2023-04-15T11:51:14;6.00;;;1.60;;
70929;SDS011;58588;48.102;19.682;2023-04-15T11:54:17;4.60;;;1.00;;
70929;SDS011;58588;48.102;19.682;2023-04-15T11:57:19;4.82;;;0.60;;
70929;SDS011;58588;48.102;19.682;2023-04-15T12:00:21;2.70;;;0.50;;
70929;SDS011;58588;48.102;19.682;2023-04-15T12:03:24;1.88;;;0.30;;
70929;SDS011;58588;48.102;19.682;2023-04-15T12:06:31;2.95;;;0.38;;
70929;SDS011;58588;48.102;19.682;2023-04-15T12:09:36;3.10;;;0.50;;
70929;SDS011;58588;48.102;19.682;2023-04-15T12:12:39;3.85;;;0.60;;
70929;SDS011;58588;48.102;19.682;2023-04-15T12:15:41;4.15;;;0.90;;
70929;SDS011;58588;48.102;19.682;2023-04-15T12:18:44;9.50;;;5.03;;
70929;SDS011;58588;48.102;19.682;2023-04-15T12:21:48;10.02;;;4.80;;
70929;SDS011;58588;48.102;19.682;2023-04-15T12:24:53;13.50;;;5.23;;
70929;SDS011;58588;48.102;19.682;2023-04-15T12:27:56;9.63;;;3.28;;
70929;SDS011;58588;48.102;19.682;2023-04-15T12:30:59;11.73;;;4.35;;
70929;SDS011;58588;48.102;19.682;2023-04-15T12:34:07;6.65;;;2.30;;
70929;SDS011;58588;48.102;19.682;2023-04-15T12:37:11;7.30;;;2.22;;
70929;SDS011;58588;48.102;19.682;2023-04-15T12:40:13;9.17;;;3.27;;
70929;SDS011;58588;48.102;19.682;2023-04-15T12:43:15;9.23;;;3.40;;
70929;SDS011;58588;48.102;19.682;2023-04-15T12:46:17;7.57;;;2.63;;
70929;SDS011;58588;48.102;19.682;2023-04-15T12:49:20;4.05;;;0.73;;
70929;SDS011;58588;48.102;19.682;2023-04-15T12:52:24;8.35;;;3.45;;
70929;SDS011;58588;48.102;19.682;2023-04-15T12:55:26;6.93;;;2.90;;
70929;SDS011;58588;48.102;19.682;2023-04-15T12:58:28;4.78;;;1.40;;
70929;SDS011;58588;48.102;19.682;2023-04-15T13:01:30;7.85;;;2.00;;
70929;SDS011;58588;48.102;19.682;2023-04-15T13:04:32;10.15;;;2.53;;
70929;SDS011;58588;48.102;19.682;2023-04-15T13:07:35;5.65;;;1.83;;
70929;SDS011;58588;48.102;19.682;2023-04-15T13:10:38;4.27;;;1.00;;
70929;SDS011;58588;48.102;19.682;2023-04-15T13:13:41;3.22;;;0.70;;
70929;SDS011;58588;48.102;19.682;2023-04-15T13:16:43;3.60;;;1.00;;
70929;SDS011;58588;48.102;19.682;2023-04-15T13:19:45;4.05;;;0.90;;
70929;SDS011;58588;48.102;19.682;2023-04-15T13:22:49;3.75;;;0.73;;
70929;SDS011;58588;48.102;19.682;2023-04-15T13:25:53;4.53;;;1.20;;
70929;SDS011;58588;48.102;19.682;2023-04-15T13:28:55;4.10;;;1.00;;
70929;SDS011;58588;48.102;19.682;2023-04-15T13:31:57;2.88;;;0.43;;
70929;SDS011;58588;48.102;19.682;2023-04-15T13:35:00;3.85;;;0.50;;
70929;SDS011;58588;48.102;19.682;2023-04-15T13:38:04;2.88;;;0.50;;
70929;SDS011;58588;48.102;19.682;2023-04-15T13:41:06;2.70;;;0.40;;
70929;SDS011;58588;48.102;19.682;2023-04-15T13:44:08;2.72;;;0.50;;
70929;SDS011;58588;48.102;19.682;2023-04-15T13:47:11;5.15;;;1.15;;
70929;SDS011;58588;48.102;19.682;2023-04-15T13:50:15;4.40;;;1.00;;
70929;SDS011;58588;48.102;19.682;2023-04-15T13:53:18;3.45;;;0.73;;
70929;SDS011;58588;48.102;19.682;2023-04-15T13:56:20;5.90;;;1.77;;
70929;SDS011;58588;48.102;19.682;2023-04-15T13:59:22;3.63;;;0.82;;
70929;SDS011;58588;48.102;19.682;2023-04-15T14:02:24;5.15;;;1.40;;
70929;SDS011;58588;48.102;19.682;2023-04-15T14:05:27;5.00;;;1.30;;
70929;SDS011;58588;48.102;19.682;2023-04-15T14:08:30;4.68;;;1.02;;
70929;SDS011;58588;48.102;19.682;2023-04-15T14:11:32;4.93;;;1.13;;
70929;SDS011;58588;48.102;19.682;2023-04-15T14:14:35;3.30;;;0.70;;
70929;SDS011;58588;48.102;19.682;2023-04-15T14:17:38;2.88;;;0.50;;
70929;SDS011;58588;48.102;19.682;2023-04-15T14:20:41;2.60;;;0.40;;
70929;SDS011;58588;48.102;19.682;2023-04-15T14:23:44;5.15;;;2.00;;
70929;SDS011;58588;48.102;19.682;2023-04-15T14:26:46;2.90;;;0.63;;
70929;SDS011;58588;48.102;19.682;2023-04-15T14:29:48;2.70;;;0.38;;
70929;SDS011;58588;48.102;19.682;2023-04-15T14:32:51;3.75;;;1.05;;
70929;SDS011;58588;48.102;19.682;2023-04-15T14:35:53;3.38;;;0.73;;
70929;SDS011;58588;48.102;19.682;2023-04-15T14:38:57;2.53;;;0.40;;
70929;SDS011;58588;48.102;19.682;2023-04-15T14:42:00;6.20;;;2.13;;
70929;SDS011;58588;48.102;19.682;2023-04-15T14:45:02;5.32;;;1.60;;
70929;SDS011;58588;48.102;19.682;2023-04-15T14:48:04;6.80;;;2.33;;
70929;SDS011;58588;48.102;19.682;2023-04-15T14:51:09;15.25;;;6.03;;
70929;SDS011;58588;48.102;19.682;2023-04-15T14:54:12;9.20;;;3.22;;
70929;SDS011;58588;48.102;19.682;2023-04-15T14:57:14;7.93;;;2.20;;
70929;SDS011;58588;48.102;19.682;2023-04-15T15:00:16;13.90;;;5.18;;
70929;SDS011;58588;48.102;19.682;2023-04-15T15:03:18;9.32;;;2.83;;
70929;SDS011;58588;48.102;19.682;2023-04-15T15:06:20;12.15;;;4.25;;
70929;SDS011;58588;48.102;19.682;2023-04-15T15:09:25;5.60;;;1.83;;
70929;SDS011;58588;48.102;19.682;2023-04-15T15:12:27;3.07;;;0.60;;
70929;SDS011;58588;48.102;19.682;2023-04-15T15:15:29;4.53;;;0.90;;
70929;SDS011;58588;48.102;19.682;2023-04-15T15:18:31;5.57;;;1.02;;
70929;SDS011;58588;48.102;19.682;2023-04-15T15:21:33;6.30;;;1.90;;
70929;SDS011;58588;48.102;19.682;2023-04-15T15:24:37;8.30;;;1.88;;
70929;SDS011;58588;48.102;19.682;2023-04-15T15:27:40;4.73;;;0.90;;
70929;SDS011;58588;48.102;19.682;2023-04-15T15:30:42;4.28;;;0.70;;
70929;SDS011;58588;48.102;19.682;2023-04-15T15:33:44;4.53;;;1.00;;
70929;SDS011;58588;48.102;19.682;2023-04-15T15:36:46;3.45;;;0.45;;
70929;SDS011;58588;48.102;19.682;2023-04-15T15:39:50;2.97;;;0.50;;
70929;SDS011;58588;48.102;19.682;2023-04-15T15:42:53;3.10;;;0.60;;
70929;SDS011;58588;48.102;19.682;2023-04-15T15:45:55;2.63;;;0.50;;
70929;SDS011;58588;48.102;19.682;2023-04-15T15:48:57;3.70;;;0.52;;
70929;SDS011;58588;48.102;19.682;2023-04-15T15:51:59;2.92;;;0.55;;
70929;SDS011;58588;48.102;19.682;2023-04-15T15:55:03;7.07;;;2.67;;
70929;SDS011;58588;48.102;19.682;2023-04-15T15:58:05;10.50;;;5.17;;
70929;SDS011;58588;48.102;19.682;2023-04-15T16:01:07;8.38;;;2.75;;
70929;SDS011;58588;48.102;19.682;2023-04-15T16:04:09;3.42;;;0.77;;
70929;SDS011;58588;48.102;19.682;2023-04-15T16:07:11;5.20;;;1.10;;
70929;SDS011;58588;48.102;19.682;2023-04-15T16:10:16;8.65;;;3.40;;
70929;SDS011;58588;48.102;19.682;2023-04-15T16:13:19;7.20;;;2.87;;
70929;SDS011;58588;48.102;19.682;2023-04-15T16:16:22;5.72;;;1.60;;
70929;SDS011;58588;48.102;19.682;2023-04-15T16:19:24;5.45;;;1.30;;
70929;SDS011;58588;48.102;19.682;2023-04-15T16:22:26;4.72;;;1.10;;
70929;SDS011;58588;48.102;19.682;2023-04-15T16:25:29;6.07;;;1.90;;
70929;SDS011;58588;48.102;19.682;2023-04-15T16:28:31;4.60;;;1.00;;
70929;SDS011;58588;48.102;19.682;2023-04-15T16:31:33;6.55;;;1.00;;
70929;SDS011;58588;48.102;19.682;2023-04-15T16:34:37;3.67;;;0.70;;
70929;SDS011;58588;48.102;19.682;2023-04-15T16:37:40;4.25;;;1.10;;
70929;SDS011;58588;48.102;19.682;2023-04-15T16:40:44;6.38;;;2.20;;
70929;SDS011;58588;48.102;19.682;2023-04-15T16:43:46;34.43;;;19.57;;
70929;SDS011;58588;48.102;19.682;2023-04-15T16:46:48;11.38;;;5.40;;
70929;SDS011;58588;48.102;19.682;2023-04-15T16:49:50;5.00;;;1.45;;
70929;SDS011;58588;48.102;19.682;2023-04-15T16:52:53;4.45;;;0.90;;
70929;SDS011;58588;48.102;19.682;2023-04-15T16:55:56;3.88;;;0.73;;
70929;SDS011;58588;48.102;19.682;2023-04-15T16:58:58;4.10;;;0.97;;
70929;SDS011;58588;48.102;19.682;2023-04-15T17:02:00;4.93;;;1.20;;
70929;SDS011;58588;48.102;19.682;2023-04-15T17:05:02;7.18;;;1.45;;
70929;SDS011;58588;48.102;19.682;2023-04-15T17:08:05;5.35;;;1.80;;
70929;SDS011;58588;48.102;19.682;2023-04-15T17:11:09;4.25;;;1.00;;
70929;SDS011;58588;48.102;19.682;2023-04-15T17:14:11;4.33;;;1.10;;
70929;SDS011;58588;48.102;19.682;2023-04-15T17:17:13;3.75;;;0.82;;
70929;SDS011;58588;48.102;19.682;2023-04-15T17:20:15;3.60;;;0.70;;
70929;SDS011;58588;48.102;19.682;2023-04-15T17:23:18;4.35;;;1.00;;
70929;SDS011;58588;48.102;19.682;2023-04-15T17:26:21;4.80;;;1.17;;
70929;SDS011;58588;48.102;19.682;2023-04-15T17:29:23;4.80;;;1.30;;
70929;SDS011;58588;48.102;19.682;2023-04-15T17:32:26;4.20;;;1.10;;
70929;SDS011;58588;48.102;19.682;2023-04-15T17:35:30;5.93;;;1.65;;
70929;SDS011;58588;48.102;19.682;2023-04-15T17:38:32;4.90;;;1.38;;
70929;SDS011;58588;48.102;19.682;2023-04-15T17:41:36;5.20;;;1.50;;
70929;SDS011;58588;48.102;19.682;2023-04-15T17:44:38;6.73;;;2.00;;
70929;SDS011;58588;48.102;19.682;2023-04-15T17:47:40;8.90;;;3.58;;
70929;SDS011;58588;48.102;19.682;2023-04-15T17:50:42;12.95;;;5.90;;
70929;SDS011;58588;48.102;19.682;2023-04-15T17:53:44;19.92;;;8.82;;
70929;SDS011;58588;48.102;19.682;2023-04-15T17:56:48;36.55;;;16.30;;
70929;SDS011;58588;48.102;19.682;2023-04-15T17:59:50;25.93;;;11.17;;